createdAt,value
2019-05-07T00:01:23.838Z,13.08
2019-05-07T00:03:54.146Z,15.53
2019-05-07T00:06:25.623Z,14.35
2019-05-07T00:09:15.020Z,13.15
2019-05-07T00:11:45.366Z,16.42
2019-05-07T00:14:15.687Z,15.93
2019-05-07T00:16:46.035Z,13.38
2019-05-07T00:19:16.388Z,14.47
2019-05-07T00:21:46.829Z,18.35
2019-05-07T00:24:17.179Z,13.72
2019-05-07T00:26:47.493Z,13.83
2019-05-07T00:29:18.467Z,20.27
2019-05-07T00:31:49.014Z,12.03
2019-05-07T00:34:22.011Z,13.18
2019-05-07T00:37:02.342Z,13.98
2019-05-07T00:40:06.862Z,13.98
2019-05-07T00:42:56.136Z,17.67
2019-05-07T00:45:36.362Z,19.95
2019-05-07T00:48:06.690Z,18.55
2019-05-07T00:50:38.758Z,18.62
2019-05-07T00:53:09.909Z,18.37
2019-05-07T00:55:42.142Z,17.70
2019-05-07T00:58:13.282Z,16.42
2019-05-07T01:00:43.872Z,17.23
2019-05-07T01:03:14.327Z,17.05
2019-05-07T01:05:44.802Z,19.95
2019-05-07T01:08:15.182Z,20.35
2019-05-07T01:10:45.712Z,19.27
2019-05-07T01:13:16.061Z,21.45
2019-05-07T01:15:46.432Z,20.77
2019-05-07T01:18:16.794Z,18.37
2019-05-07T01:20:48.163Z,16.50
2019-05-07T01:23:18.569Z,17.27
2019-05-07T01:25:48.882Z,19.57
2019-05-07T01:28:19.193Z,20.17
2019-05-07T01:30:49.526Z,16.70
2019-05-07T01:33:27.982Z,18.42
2019-05-07T01:36:19.266Z,17.52
2019-05-07T01:38:49.702Z,18.35
2019-05-07T01:41:20.052Z,20.23
2019-05-07T01:43:52.365Z,20.00
2019-05-07T01:46:24.772Z,29.42
2019-05-07T01:48:57.464Z,16.97
2019-05-07T01:51:27.500Z,18.75
2019-05-07T01:53:57.889Z,18.15
2019-05-07T01:56:29.044Z,20.10
2019-05-07T01:58:59.379Z,19.32
2019-05-07T02:01:29.728Z,18.32
2019-05-07T02:04:06.866Z,18.35
2019-05-07T02:06:59.128Z,19.87
2019-05-07T02:09:52.737Z,19.73
2019-05-07T02:12:42.606Z,21.65
2019-05-07T02:15:13.184Z,19.70
2019-05-07T02:17:43.537Z,19.30
2019-05-07T02:20:14.562Z,16.77
2019-05-07T02:22:44.881Z,18.75
2019-05-07T02:25:15.343Z,22.90
2019-05-07T02:27:46.189Z,19.80
2019-05-07T02:30:16.579Z,18.82
2019-05-07T02:32:46.938Z,17.87
2019-05-07T02:35:17.497Z,24.07
2019-05-07T02:38:06.919Z,18.62
2019-05-07T02:40:53.503Z,27.10
2019-05-07T02:43:23.675Z,20.60
2019-05-07T02:46:22.445Z,17.92
2019-05-07T02:48:53.628Z,20.55
2019-05-07T02:51:38.698Z,20.88
2019-05-07T02:54:19.464Z,26.50
2019-05-07T02:56:49.805Z,20.32
2019-05-07T02:59:23.060Z,25.00
2019-05-07T03:01:53.746Z,24.15
2019-05-07T03:04:25.169Z,21.27
2019-05-07T03:06:56.166Z,22.67
2019-05-07T03:09:26.521Z,21.60
2019-05-07T03:11:57.210Z,22.50
2019-05-07T03:14:27.561Z,22.27
2019-05-07T03:17:03.102Z,22.50
2019-05-07T03:19:35.152Z,22.15
2019-05-07T03:22:05.488Z,20.57
2019-05-07T03:24:43.506Z,21.05
2019-05-07T03:27:14.459Z,25.97
2019-05-07T03:29:53.470Z,22.42
2019-05-07T03:32:40.202Z,19.32
2019-05-07T03:35:37.166Z,29.00
2019-05-07T03:38:07.106Z,21.87
2019-05-07T03:40:37.657Z,22.02
2019-05-07T03:43:08.005Z,20.95
2019-05-07T03:45:56.602Z,21.00
2019-05-07T03:48:28.245Z,22.20
2019-05-07T03:51:03.408Z,24.27
2019-05-07T03:53:33.948Z,27.15
2019-05-07T03:56:05.300Z,22.85
2019-05-07T03:58:35.608Z,21.52
2019-05-07T04:01:05.939Z,22.73
2019-05-07T04:03:36.578Z,20.10
2019-05-07T04:06:06.925Z,20.90
2019-05-07T04:08:37.327Z,25.43
2019-05-07T04:11:08.379Z,22.32
2019-05-07T04:13:38.690Z,23.32
2019-05-07T04:16:09.243Z,20.30
2019-05-07T04:18:39.644Z,21.45
2019-05-07T04:21:13.619Z,22.10
2019-05-07T04:23:43.652Z,28.05
2019-05-07T04:26:29.387Z,22.55
2019-05-07T04:29:04.854Z,24.05
2019-05-07T04:31:37.818Z,28.12
2019-05-07T04:34:16.773Z,27.42
2019-05-07T04:36:49.138Z,22.98
2019-05-07T04:39:19.450Z,21.97
2019-05-07T04:41:52.831Z,34.40
2019-05-07T04:44:23.510Z,26.12
2019-05-07T04:46:53.975Z,30.00
2019-05-07T04:49:24.504Z,28.75
2019-05-07T04:52:04.236Z,33.53
2019-05-07T04:54:35.903Z,32.00
2019-05-07T04:57:09.339Z,25.40
2019-05-07T04:59:42.559Z,26.00
2019-05-07T05:02:17.026Z,26.80
2019-05-07T05:04:48.568Z,25.57
2019-05-07T05:07:18.939Z,29.45
2019-05-07T05:09:49.367Z,28.67
2019-05-07T05:12:19.763Z,28.83
2019-05-07T05:14:52.417Z,37.05
2019-05-07T05:17:22.668Z,26.52
2019-05-07T05:19:53.048Z,36.08
2019-05-07T05:23:02.389Z,26.20
2019-05-07T05:25:35.491Z,28.87
2019-05-07T05:28:05.847Z,31.52
2019-05-07T05:30:43.243Z,28.98
2019-05-07T05:33:13.697Z,23.83
2019-05-07T05:35:44.054Z,26.57
2019-05-07T05:38:14.456Z,25.75
2019-05-07T05:40:44.800Z,27.27
2019-05-07T05:43:25.212Z,30.55
2019-05-07T05:45:58.484Z,30.55
2019-05-07T05:48:28.802Z,29.87
2019-05-07T05:51:11.912Z,27.13
2019-05-07T05:53:53.779Z,25.20
2019-05-07T05:56:43.032Z,25.65
2019-05-07T05:59:25.382Z,30.27
2019-05-07T06:02:13.847Z,27.52
2019-05-07T06:05:08.818Z,26.55
2019-05-07T06:07:44.979Z,26.45
2019-05-07T06:10:33.107Z,25.40
2019-05-07T06:13:22.600Z,23.10
2019-05-07T06:16:03.058Z,21.80
2019-05-07T06:18:52.670Z,24.95
2019-05-07T06:21:41.999Z,23.95
2019-05-07T06:24:14.547Z,26.77
2019-05-07T06:26:45.055Z,23.90
2019-05-07T06:29:15.362Z,19.50
2019-05-07T06:32:02.491Z,27.82
2019-05-07T06:34:34.215Z,27.60
2019-05-07T06:37:04.708Z,23.55
2019-05-07T06:39:49.051Z,21.42
2019-05-07T06:42:53.530Z,26.02
2019-05-07T06:45:27.481Z,19.50
2019-05-07T06:47:57.889Z,15.32
2019-05-07T06:50:28.193Z,22.80
2019-05-07T06:52:58.798Z,23.80
2019-05-07T06:55:29.237Z,17.42
2019-05-07T06:57:59.574Z,20.35
2019-05-07T07:01:07.154Z,21.87
2019-05-07T07:03:43.407Z,20.15
2019-05-07T07:06:35.473Z,18.45
2019-05-07T07:09:26.378Z,17.82
2019-05-07T07:12:02.017Z,18.90
2019-05-07T07:14:33.148Z,20.40
2019-05-07T07:17:04.150Z,18.73
2019-05-07T07:19:36.202Z,18.87
2019-05-07T07:22:06.743Z,17.17
2019-05-07T07:24:37.170Z,26.05
2019-05-07T07:27:07.552Z,18.17
2019-05-07T07:29:41.925Z,17.87
2019-05-07T07:32:12.784Z,21.85
2019-05-07T07:34:48.360Z,19.95
2019-05-07T07:37:31.897Z,16.82
2019-05-07T07:40:38.709Z,17.45
2019-05-07T07:43:09.155Z,20.45
2019-05-07T07:45:41.888Z,16.52
2019-05-07T07:48:13.226Z,21.42
2019-05-07T07:50:43.829Z,17.55
2019-05-07T07:53:14.183Z,22.90
2019-05-07T07:56:03.475Z,15.68
2019-05-07T07:58:47.746Z,19.12
2019-05-07T08:01:33.003Z,17.67
2019-05-07T08:04:03.811Z,15.40
2019-05-07T08:06:34.146Z,17.32
2019-05-07T08:09:05.962Z,16.82
2019-05-07T08:11:36.349Z,11.25
2019-05-07T08:14:06.907Z,14.25
2019-05-07T08:16:37.850Z,14.83
2019-05-07T08:19:21.376Z,14.00
2019-05-07T08:21:42.065Z,13.50
2019-05-07T08:24:12.415Z,12.82
2019-05-07T08:26:43.003Z,10.43
2019-05-07T08:29:13.616Z,16.20
2019-05-07T08:31:51.803Z,11.25
2019-05-07T08:34:32.587Z,9.98
2019-05-07T08:37:02.930Z,11.40
2019-05-07T08:39:33.279Z,16.23
2019-05-07T08:42:03.646Z,10.43
2019-05-07T08:44:46.227Z,12.82
2019-05-07T08:47:37.887Z,10.60
2019-05-07T08:50:08.785Z,12.65
2019-05-07T08:52:39.112Z,8.60
2019-05-07T08:55:12.406Z,8.03
2019-05-07T08:57:42.217Z,8.00
2019-05-07T09:00:14.572Z,8.25
2019-05-07T09:02:45.018Z,7.90
2019-05-07T09:05:15.643Z,11.28
2019-05-07T09:07:46.014Z,12.98
2019-05-07T09:10:16.420Z,7.47
2019-05-07T09:12:46.892Z,8.05
2019-05-07T09:15:17.330Z,8.23
2019-05-07T09:17:47.764Z,7.15
2019-05-07T09:20:18.496Z,8.23
2019-05-07T09:22:48.949Z,11.53
2019-05-07T09:25:19.432Z,8.15
2019-05-07T09:27:52.403Z,10.20
2019-05-07T09:30:48.298Z,8.35
2019-05-07T09:33:31.998Z,7.30
2019-05-07T09:36:02.365Z,8.35
2019-05-07T09:38:32.945Z,8.63
2019-05-07T09:41:03.400Z,7.55
2019-05-07T09:43:33.732Z,7.72
2019-05-07T09:46:04.134Z,17.67
2019-05-07T09:48:35.380Z,9.98
2019-05-07T09:51:05.756Z,11.57
2019-05-07T09:53:36.196Z,5.92
2019-05-07T09:56:06.764Z,4.83
2019-05-07T09:58:39.197Z,12.43
2019-05-07T10:01:09.170Z,7.22
2019-05-07T10:03:39.526Z,6.22
2019-05-07T10:06:09.954Z,8.73
2019-05-07T10:08:41.987Z,6.30
2019-05-07T10:11:14.050Z,8.05
2019-05-07T10:13:56.921Z,6.80
2019-05-07T10:16:36.648Z,9.58
2019-05-07T10:19:07.144Z,6.70
2019-05-07T10:21:37.465Z,5.87
2019-05-07T10:24:08.006Z,6.75
2019-05-07T10:26:40.193Z,6.83
2019-05-07T10:29:12.633Z,8.68
2019-05-07T10:31:43.474Z,10.18
2019-05-07T10:34:13.827Z,10.03
2019-05-07T10:36:44.186Z,9.73
2019-05-07T10:39:14.738Z,5.83
2019-05-07T10:41:45.059Z,9.03
2019-05-07T10:44:17.033Z,8.28
2019-05-07T10:47:05.225Z,7.53
2019-05-07T10:49:43.885Z,12.63
2019-05-07T10:52:14.227Z,7.35
2019-05-07T10:54:56.705Z,8.25
2019-05-07T10:57:16.883Z,9.93
2019-05-07T10:59:47.236Z,10.40
2019-05-07T11:02:25.382Z,7.30
2019-05-07T11:04:55.744Z,7.42
2019-05-07T11:07:26.430Z,6.37
2019-05-07T11:09:56.766Z,10.08
2019-05-07T11:12:27.115Z,7.78
2019-05-07T11:14:57.470Z,5.05
2019-05-07T11:17:42.827Z,8.30
2019-05-07T11:20:14.288Z,5.92
2019-05-07T11:22:44.620Z,6.45
2019-05-07T11:25:15.378Z,6.47
2019-05-07T11:27:45.733Z,6.50
2019-05-07T11:30:18.671Z,5.05
2019-05-07T11:32:49.000Z,4.47
2019-05-07T11:35:19.329Z,4.45
2019-05-07T11:37:51.859Z,4.20
2019-05-07T11:40:22.943Z,5.33
2019-05-07T11:43:08.854Z,5.87
2019-05-07T11:45:54.081Z,4.78
2019-05-07T11:48:24.111Z,4.50
2019-05-07T11:51:09.680Z,10.90
2019-05-07T11:53:58.933Z,6.10
2019-05-07T11:56:29.298Z,6.37
2019-05-07T11:58:59.670Z,6.60
2019-05-07T12:01:43.055Z,5.65
2019-05-07T12:04:02.193Z,7.03
2019-05-07T12:06:32.516Z,7.35
2019-05-07T12:09:03.143Z,6.80
2019-05-07T12:11:33.515Z,5.20
2019-05-07T12:14:03.848Z,4.60
2019-05-07T12:16:34.179Z,7.33
2019-05-07T12:19:04.584Z,3.72
2019-05-07T12:21:34.907Z,5.10
2019-05-07T12:24:06.171Z,7.22
2019-05-07T12:26:38.175Z,8.20
2019-05-07T12:29:08.534Z,5.90
2019-05-07T12:32:03.794Z,6.28
2019-05-07T12:34:56.208Z,5.95
2019-05-07T12:37:26.648Z,9.20
2019-05-07T12:39:57.026Z,6.92
2019-05-07T12:42:27.340Z,5.05
2019-05-07T12:44:57.690Z,5.83
2019-05-07T12:47:27.980Z,4.60
2019-05-07T12:49:58.333Z,7.72
2019-05-07T12:52:42.453Z,3.27
2019-05-07T12:55:35.620Z,7.65
2019-05-07T12:58:06.035Z,4.53
2019-05-07T13:00:46.820Z,7.28
2019-05-07T13:03:36.077Z,5.65
2019-05-07T13:06:06.412Z,8.33
2019-05-07T13:08:36.735Z,5.92
2019-05-07T13:11:07.346Z,7.92
2019-05-07T13:13:37.718Z,7.22
2019-05-07T13:16:08.227Z,6.53
2019-05-07T13:18:38.588Z,5.62
2019-05-07T13:21:08.927Z,5.08
2019-05-07T13:23:39.259Z,7.65
2019-05-07T13:26:09.633Z,8.98
2019-05-07T13:28:42.021Z,8.53
2019-05-07T13:31:12.593Z,5.40
2019-05-07T13:33:45.280Z,7.70
2019-05-07T13:36:15.753Z,6.60
2019-05-07T13:39:10.962Z,7.15
2019-05-07T13:42:06.426Z,5.20
2019-05-07T13:44:49.630Z,8.83
2019-05-07T13:47:30.848Z,8.93
2019-05-07T13:50:02.606Z,9.23
2019-05-07T13:52:34.062Z,7.78
2019-05-07T13:55:04.907Z,6.78
2019-05-07T13:57:35.324Z,9.65
2019-05-07T14:00:09.701Z,6.15
2019-05-07T14:02:42.089Z,7.55
2019-05-07T14:05:14.225Z,9.05
2019-05-07T14:07:44.648Z,7.15
2019-05-07T14:10:15.334Z,10.55
2019-05-07T14:12:45.735Z,11.48
2019-05-07T14:15:17.169Z,13.43
2019-05-07T14:17:47.542Z,7.30
2019-05-07T14:20:18.246Z,9.05
2019-05-07T14:22:48.614Z,7.17
2019-05-07T14:25:19.017Z,7.72
2019-05-07T14:27:49.328Z,7.80
2019-05-07T14:30:21.714Z,7.85
2019-05-07T14:32:57.872Z,8.95
2019-05-07T14:35:47.157Z,10.32
2019-05-07T14:38:35.057Z,8.53
2019-05-07T14:41:05.445Z,12.10
2019-05-07T14:43:41.855Z,12.00
2019-05-07T14:46:12.648Z,8.88
2019-05-07T14:48:43.906Z,10.63
2019-05-07T14:51:14.501Z,8.60
2019-05-07T14:53:45.374Z,7.62
2019-05-07T14:56:17.438Z,7.42
2019-05-07T14:58:47.847Z,10.75
2019-05-07T15:01:18.276Z,9.03
2019-05-07T15:03:48.795Z,11.90
2019-05-07T15:06:19.168Z,7.28
2019-05-07T15:08:49.599Z,8.75
2019-05-07T15:11:19.973Z,9.55
2019-05-07T15:13:52.897Z,11.10
2019-05-07T15:16:23.229Z,12.05
2019-05-07T15:18:55.473Z,11.05
2019-05-07T15:21:26.273Z,11.80
2019-05-07T15:23:58.092Z,9.28
2019-05-07T15:26:28.499Z,11.90
2019-05-07T15:29:09.478Z,9.70
2019-05-07T15:31:57.515Z,9.40
2019-05-07T15:34:27.919Z,9.70
2019-05-07T15:36:58.272Z,6.30
2019-05-07T15:39:28.624Z,11.65
2019-05-07T15:41:58.964Z,9.00
2019-05-07T15:44:29.307Z,9.23
2019-05-07T15:47:02.580Z,9.35
2019-05-07T15:49:33.091Z,19.57
2019-05-07T15:52:06.167Z,12.33
2019-05-07T15:54:36.507Z,9.60
2019-05-07T15:57:08.976Z,9.65
2019-05-07T15:59:39.341Z,12.25
2019-05-07T16:02:18.901Z,12.45
2019-05-07T16:04:51.392Z,13.98
2019-05-07T16:07:24.429Z,9.63
2019-05-07T16:09:54.792Z,9.48
2019-05-07T16:12:25.116Z,11.48
2019-05-07T16:14:55.454Z,12.70
2019-05-07T16:17:39.478Z,12.37
2019-05-07T16:20:12.101Z,13.22
2019-05-07T16:22:45.886Z,15.60
2019-05-07T16:25:16.252Z,11.28
2019-05-07T16:27:46.599Z,14.00
2019-05-07T16:30:17.448Z,10.30
2019-05-07T16:32:47.772Z,9.95
2019-05-07T16:35:18.163Z,11.15
2019-05-07T16:37:48.623Z,12.47
2019-05-07T16:40:19.565Z,12.75
2019-05-07T16:42:52.216Z,11.57
2019-05-07T16:45:22.238Z,11.43
2019-05-07T16:47:52.579Z,10.28
2019-05-07T16:50:23.242Z,11.78
2019-05-07T16:52:53.563Z,13.75
2019-05-07T16:55:26.360Z,12.13
2019-05-07T16:58:05.045Z,11.45
2019-05-07T17:00:44.868Z,11.10
2019-05-07T17:03:19.980Z,9.03
2019-05-07T17:05:52.278Z,12.70
2019-05-07T17:08:27.441Z,11.38
2019-05-07T17:10:57.792Z,12.73
2019-05-07T17:13:28.114Z,13.80
2019-05-07T17:15:58.984Z,14.50
2019-05-07T17:18:29.613Z,16.85
2019-05-07T17:21:02.046Z,12.85
2019-05-07T17:23:43.801Z,13.08
2019-05-07T17:26:05.062Z,12.33
2019-05-07T17:28:35.488Z,11.83
2019-05-07T17:31:05.870Z,10.32
2019-05-07T17:33:36.253Z,10.70
2019-05-07T17:36:06.686Z,13.58
2019-05-07T17:38:37.046Z,13.13
2019-05-07T17:41:13.568Z,11.40
2019-05-07T17:43:39.531Z,12.45
2019-05-07T17:46:12.152Z,16.05
2019-05-07T17:48:42.876Z,13.15
2019-05-07T17:51:32.409Z,15.95
2019-05-07T17:54:02.767Z,10.35
2019-05-07T17:56:33.314Z,17.32
2019-05-07T17:59:03.753Z,16.57
2019-05-07T18:01:53.146Z,17.77
2019-05-07T18:04:24.324Z,11.70
2019-05-07T18:06:54.763Z,12.15
2019-05-07T18:09:25.305Z,13.83
2019-05-07T18:11:55.656Z,11.85
2019-05-07T18:14:26.057Z,12.53
2019-05-07T18:17:15.341Z,14.98
2019-05-07T18:19:48.650Z,10.60
2019-05-07T18:22:19.006Z,14.30
2019-05-07T18:24:49.449Z,12.68
2019-05-07T18:27:25.929Z,13.30
2019-05-07T18:29:56.282Z,13.50
2019-05-07T18:32:32.505Z,11.60
2019-05-07T18:35:02.923Z,12.15
2019-05-07T18:37:33.371Z,14.33
2019-05-07T18:40:03.766Z,15.93
2019-05-07T18:42:34.272Z,14.28
2019-05-07T18:45:04.683Z,14.78
2019-05-07T18:47:35.163Z,15.88
2019-05-07T18:50:05.812Z,13.95
2019-05-07T18:52:36.287Z,14.18
2019-05-07T18:55:06.861Z,18.10
2019-05-07T18:57:37.261Z,17.67
2019-05-07T19:00:09.044Z,15.28
2019-05-07T19:02:39.379Z,16.55
2019-05-07T19:05:09.807Z,16.67
2019-05-07T19:07:41.666Z,21.20
2019-05-07T19:10:12.722Z,14.23
2019-05-07T19:12:43.440Z,18.65
2019-05-07T19:15:13.915Z,15.78
2019-05-07T19:17:44.317Z,17.77
2019-05-07T19:20:14.668Z,15.55
2019-05-07T19:22:45.040Z,18.30
2019-05-07T19:25:15.586Z,21.87
2019-05-07T19:27:46.056Z,15.78
2019-05-07T19:30:17.393Z,16.27
2019-05-07T19:32:47.735Z,15.65
2019-05-07T19:35:18.263Z,15.53
2019-05-07T19:37:48.573Z,14.75
2019-05-07T19:40:19.081Z,20.23
2019-05-07T19:42:49.439Z,15.40
2019-05-07T19:45:22.375Z,16.52
2019-05-07T19:47:52.421Z,14.58
2019-05-07T19:50:23.408Z,15.88
2019-05-07T19:52:53.979Z,17.32
2019-05-07T19:55:24.436Z,14.28
2019-05-07T19:58:01.868Z,16.25
2019-05-07T20:00:32.769Z,19.82
2019-05-07T20:03:03.553Z,14.78
2019-05-07T20:05:37.185Z,17.70
2019-05-07T20:08:06.384Z,16.90
2019-05-07T20:10:42.484Z,18.32
2019-05-07T20:13:12.854Z,17.45
2019-05-07T20:15:46.748Z,13.95
2019-05-07T20:18:17.411Z,18.57
2019-05-07T20:20:47.842Z,14.05
2019-05-07T20:23:18.380Z,21.23
2019-05-07T20:25:48.900Z,16.77
2019-05-07T20:28:21.673Z,14.45
2019-05-07T20:30:52.665Z,15.48
2019-05-07T20:33:24.314Z,14.45
2019-05-07T20:35:54.629Z,15.38
2019-05-07T20:38:24.958Z,19.48
2019-05-07T20:40:55.422Z,18.27
2019-05-07T20:43:26.019Z,21.00
2019-05-07T20:45:56.443Z,19.87
2019-05-07T20:48:26.942Z,21.82
2019-05-07T20:50:57.332Z,18.52
2019-05-07T20:53:45.283Z,19.02
2019-05-07T20:56:16.910Z,18.35
2019-05-07T20:58:47.232Z,20.08
2019-05-07T21:01:17.601Z,17.80
2019-05-07T21:03:47.982Z,16.57
2019-05-07T21:06:18.384Z,21.85
2019-05-07T21:08:48.762Z,22.17
2019-05-07T21:11:19.091Z,20.35
2019-05-07T21:13:49.454Z,20.37
2019-05-07T21:16:21.960Z,20.48
2019-05-07T21:18:52.854Z,23.15
2019-05-07T21:21:23.464Z,19.95
2019-05-07T21:23:53.876Z,16.12
2019-05-07T21:26:24.238Z,18.25
2019-05-07T21:28:54.676Z,20.52
2019-05-07T21:31:25.115Z,22.75
2019-05-07T21:33:55.438Z,26.52
2019-05-07T21:36:25.865Z,17.80
2019-05-07T21:38:56.220Z,19.15
2019-05-07T21:41:26.665Z,17.05
2019-05-07T21:43:57.064Z,19.30
2019-05-07T21:46:27.486Z,18.98
2019-05-07T21:48:57.845Z,23.73
2019-05-07T21:51:28.246Z,16.27
2019-05-07T21:54:14.842Z,20.48
2019-05-07T21:57:01.916Z,22.35
2019-05-07T21:59:35.691Z,19.40
2019-05-07T22:02:12.665Z,17.62
2019-05-07T22:04:43.299Z,17.37
2019-05-07T22:07:13.896Z,18.77
2019-05-07T22:09:44.221Z,20.35
2019-05-07T22:12:14.577Z,20.52
2019-05-07T22:14:44.974Z,20.10
2019-05-07T22:17:15.322Z,23.20
2019-05-07T22:19:45.680Z,22.55
2019-05-07T22:22:16.040Z,18.25
2019-05-07T22:24:49.341Z,19.75
2019-05-07T22:27:18.426Z,18.50
2019-05-07T22:29:48.840Z,20.30
2019-05-07T22:32:29.967Z,21.05
2019-05-07T22:35:09.171Z,18.35
2019-05-07T22:37:39.550Z,20.30
2019-05-07T22:40:12.163Z,19.20
2019-05-07T22:42:42.654Z,18.77
2019-05-07T22:45:13.104Z,17.95
2019-05-07T22:47:43.432Z,15.58
2019-05-07T22:50:13.874Z,17.55
2019-05-07T22:52:44.229Z,16.93
2019-05-07T22:55:14.645Z,21.20
2019-05-07T22:57:54.772Z,17.73
2019-05-07T23:00:42.690Z,16.37
2019-05-07T23:03:13.989Z,15.03
2019-05-07T23:05:44.970Z,15.30
2019-05-07T23:08:15.830Z,14.95
2019-05-07T23:10:46.364Z,17.80
2019-05-07T23:13:16.713Z,14.38
2019-05-07T23:15:47.036Z,19.60
2019-05-07T23:18:17.410Z,15.40
2019-05-07T23:20:47.769Z,16.57
2019-05-07T23:23:18.161Z,18.55
2019-05-07T23:25:48.518Z,22.20
2019-05-07T23:28:18.841Z,20.08
2019-05-07T23:30:51.705Z,15.53
2019-05-07T23:33:22.657Z,17.12
2019-05-07T23:35:53.231Z,16.37
2019-05-07T23:38:23.576Z,16.82
2019-05-07T23:41:12.850Z,19.42
2019-05-07T23:43:44.817Z,19.05
2019-05-07T23:46:15.195Z,14.53
2019-05-07T23:48:45.577Z,16.00
2019-05-07T23:51:15.896Z,15.28
2019-05-07T23:53:46.263Z,15.10
2019-05-07T23:56:16.647Z,15.90
2019-05-07T23:58:46.965Z,16.60
